createdAt,value
2019-02-05T00:01:46.209Z,90.22
2019-02-05T00:04:15.665Z,90.71
2019-02-05T00:06:44.914Z,91.31
2019-02-05T00:09:14.453Z,91.78
2019-02-05T00:11:43.747Z,91.82
2019-02-05T00:14:13.250Z,92.28
2019-02-05T00:16:42.976Z,92.34
2019-02-05T00:19:12.280Z,93.03
2019-02-05T00:21:41.764Z,92.70
2019-02-05T00:24:11.100Z,92.89
2019-02-05T00:26:40.730Z,93.48
2019-02-05T00:29:09.914Z,93.76
2019-02-05T00:31:39.596Z,93.93
2019-02-05T00:34:09.024Z,94.13
2019-02-05T00:36:38.291Z,94.18
2019-02-05T00:39:09.288Z,94.40
2019-02-05T00:41:38.551Z,94.55
2019-02-05T00:44:07.825Z,95.09
2019-02-05T00:46:37.145Z,95.29
2019-02-05T00:49:06.425Z,95.39
2019-02-05T00:51:35.843Z,95.26
2019-02-05T00:54:05.648Z,96.02
2019-02-05T00:56:34.857Z,96.28
2019-02-05T00:59:04.474Z,96.26
2019-02-05T01:01:36.180Z,96.86
2019-02-05T01:04:06.228Z,97.30
2019-02-05T01:06:35.434Z,98.00
2019-02-05T01:09:07.318Z,98.27
2019-02-05T01:11:36.821Z,98.60
2019-02-05T01:14:06.313Z,98.64
2019-02-05T01:16:35.639Z,98.95
2019-02-05T01:19:04.780Z,98.51
2019-02-05T01:21:34.162Z,98.79
2019-02-05T01:24:03.426Z,98.99
2019-02-05T01:26:32.715Z,99.12
2019-02-05T01:29:01.963Z,99.43
2019-02-05T01:31:31.385Z,99.07
2019-02-05T01:34:00.815Z,99.37
2019-02-05T01:36:30.057Z,99.39
2019-02-05T01:38:59.464Z,99.64
2019-02-05T01:41:30.859Z,99.21
2019-02-05T01:44:00.129Z,99.61
2019-02-05T01:46:29.430Z,99.88
2019-02-05T01:48:58.788Z,99.82
2019-02-05T01:51:28.110Z,99.88
2019-02-05T01:53:57.526Z,99.81
2019-02-05T01:56:26.918Z,99.89
2019-02-05T01:58:56.295Z,99.87
2019-02-05T02:01:25.713Z,99.66
2019-02-05T02:03:54.991Z,100.00
2019-02-05T02:06:24.860Z,100.00
2019-02-05T02:08:54.745Z,100.00
2019-02-05T02:11:24.448Z,100.00
2019-02-05T02:13:53.815Z,100.00
2019-02-05T02:16:23.016Z,100.00
2019-02-05T02:18:52.247Z,100.00
2019-02-05T02:21:21.525Z,100.00
2019-02-05T02:23:50.851Z,100.00
2019-02-05T02:26:20.211Z,100.00
2019-02-05T02:28:49.576Z,100.00
2019-02-05T02:31:18.757Z,100.00
2019-02-05T02:33:48.026Z,100.00
2019-02-05T02:36:17.291Z,100.00
2019-02-05T02:38:46.516Z,100.00
2019-02-05T02:41:15.850Z,100.00
2019-02-05T02:43:45.164Z,100.00
2019-02-05T02:46:14.403Z,100.00
2019-02-05T02:48:43.789Z,100.00
2019-02-05T02:51:13.027Z,100.00
2019-02-05T02:53:42.360Z,100.00
2019-02-05T02:56:11.773Z,100.00
2019-02-05T02:58:41.068Z,100.00
2019-02-05T03:01:10.443Z,100.00
2019-02-05T03:03:39.805Z,100.00
2019-02-05T03:06:09.258Z,100.00
2019-02-05T03:08:38.494Z,100.00
2019-02-05T03:11:07.887Z,100.00
2019-02-05T03:13:37.442Z,100.00
2019-02-05T03:16:06.737Z,100.00
2019-02-05T03:18:36.107Z,100.00
2019-02-05T03:21:05.403Z,100.00
2019-02-05T03:23:35.590Z,100.00
2019-02-05T03:26:04.833Z,100.00
2019-02-05T03:28:34.104Z,100.00
2019-02-05T03:31:03.894Z,100.00
2019-02-05T03:33:33.137Z,100.00
2019-02-05T03:36:02.462Z,100.00
2019-02-05T03:38:31.711Z,100.00
2019-02-05T03:41:06.232Z,100.00
2019-02-05T03:43:39.175Z,100.00
2019-02-05T03:46:16.163Z,100.00
2019-02-05T03:48:47.648Z,100.00
2019-02-05T03:51:47.798Z,100.00
2019-02-05T03:54:53.683Z,100.00
2019-02-05T03:58:09.536Z,100.00
2019-02-05T04:01:23.076Z,100.00
2019-02-05T04:04:24.929Z,100.00
2019-02-05T04:07:54.272Z,100.00
2019-02-05T04:10:58.268Z,100.00
2019-02-05T04:14:06.456Z,100.00
2019-02-05T04:17:34.565Z,100.00
2019-02-05T04:20:43.460Z,100.00
2019-02-05T04:24:05.812Z,100.00
2019-02-05T04:27:17.996Z,100.00
2019-02-05T04:30:14.235Z,100.00
2019-02-05T04:33:05.842Z,100.00
2019-02-05T04:36:07.990Z,100.00
2019-02-05T04:39:29.010Z,100.00
2019-02-05T04:42:13.161Z,100.00
2019-02-05T04:45:33.364Z,100.00
2019-02-05T04:48:30.973Z,100.00
2019-02-05T04:51:40.833Z,100.00
2019-02-05T04:54:52.747Z,100.00
2019-02-05T04:58:05.141Z,100.00
2019-02-05T05:00:57.845Z,100.00
2019-02-05T05:04:21.438Z,100.00
2019-02-05T05:07:06.012Z,100.00
2019-02-05T05:09:54.925Z,100.00
2019-02-05T05:12:24.931Z,100.00
2019-02-05T05:14:54.330Z,100.00
2019-02-05T05:17:23.866Z,100.00
2019-02-05T05:19:53.511Z,100.00
2019-02-05T05:22:23.007Z,100.00
2019-02-05T05:24:52.443Z,100.00
2019-02-05T05:27:22.547Z,100.00
2019-02-05T05:29:52.074Z,100.00
2019-02-05T05:32:21.874Z,100.00
2019-02-05T05:34:51.221Z,100.00
2019-02-05T05:37:18.846Z,100.00
2019-02-05T05:39:48.101Z,100.00
2019-02-05T05:42:17.515Z,100.00
2019-02-05T05:44:48.130Z,100.00
2019-02-05T05:47:17.535Z,100.00
2019-02-05T05:49:46.925Z,100.00
2019-02-05T05:52:16.281Z,100.00
2019-02-05T05:54:45.800Z,100.00
2019-02-05T05:57:15.038Z,100.00
2019-02-05T05:59:46.036Z,100.00
2019-02-05T06:02:16.030Z,100.00
2019-02-05T06:04:45.286Z,100.00
2019-02-05T06:07:14.657Z,100.00
2019-02-05T06:09:44.411Z,100.00
2019-02-05T06:12:13.869Z,100.00
2019-02-05T06:14:43.253Z,100.00
2019-02-05T06:17:12.674Z,100.00
2019-02-05T06:19:42.067Z,100.00
2019-02-05T06:22:11.433Z,100.00
2019-02-05T06:24:40.694Z,100.00
2019-02-05T06:27:10.029Z,100.00
2019-02-05T06:29:39.373Z,100.00
2019-02-05T06:32:08.952Z,100.00
2019-02-05T06:34:38.222Z,100.00
2019-02-05T06:37:08.577Z,100.00
2019-02-05T06:39:38.026Z,100.00
2019-02-05T06:42:07.317Z,100.00
2019-02-05T06:44:36.707Z,100.00
2019-02-05T06:47:06.354Z,100.00
2019-02-05T06:49:35.847Z,100.00
2019-02-05T06:52:05.272Z,100.00
2019-02-05T06:54:34.561Z,100.00
2019-02-05T06:57:03.881Z,100.00
2019-02-05T06:59:33.161Z,100.00
2019-02-05T07:02:02.375Z,100.00
2019-02-05T07:04:31.801Z,100.00
2019-02-05T07:07:01.482Z,100.00
2019-02-05T07:09:30.661Z,100.00
2019-02-05T07:11:59.959Z,100.00
2019-02-05T07:14:29.211Z,100.00
2019-02-05T07:16:58.587Z,100.00
2019-02-05T07:19:28.058Z,100.00
2019-02-05T07:21:57.338Z,100.00
2019-02-05T07:24:26.598Z,100.00
2019-02-05T07:26:55.937Z,100.00
2019-02-05T07:29:25.335Z,100.00
2019-02-05T07:31:54.554Z,100.00
2019-02-05T07:34:24.755Z,100.00
2019-02-05T07:36:57.413Z,100.00
2019-02-05T07:39:27.666Z,100.00
2019-02-05T07:41:57.057Z,100.00
2019-02-05T07:44:26.386Z,100.00
2019-02-05T07:46:55.646Z,100.00
2019-02-05T07:49:24.968Z,100.00
2019-02-05T07:51:54.530Z,100.00
2019-02-05T07:54:23.866Z,100.00
2019-02-05T07:56:53.242Z,100.00
2019-02-05T07:59:22.637Z,100.00
2019-02-05T08:01:51.929Z,100.00
2019-02-05T08:04:21.203Z,100.00
2019-02-05T08:06:52.468Z,100.00
2019-02-05T08:09:22.122Z,100.00
2019-02-05T08:11:51.421Z,100.00
2019-02-05T08:14:20.758Z,100.00
2019-02-05T08:16:50.009Z,100.00
2019-02-05T08:19:19.289Z,100.00
2019-02-05T08:21:48.633Z,100.00
2019-02-05T08:24:17.844Z,100.00
2019-02-05T08:26:47.073Z,100.00
2019-02-05T08:29:21.701Z,100.00
2019-02-05T08:31:47.436Z,100.00
2019-02-05T08:34:16.671Z,100.00
2019-02-05T08:36:45.952Z,100.00
2019-02-05T08:39:17.906Z,100.00
2019-02-05T08:41:46.205Z,100.00
2019-02-05T08:44:15.789Z,100.00
2019-02-05T08:46:45.029Z,100.00
2019-02-05T08:49:14.429Z,100.00
2019-02-05T08:51:43.649Z,100.00
2019-02-05T08:54:12.952Z,100.00
2019-02-05T08:56:42.212Z,100.00
2019-02-05T08:59:11.508Z,100.00
2019-02-05T09:01:41.128Z,100.00
2019-02-05T09:04:10.379Z,100.00
2019-02-05T09:06:39.699Z,100.00
2019-02-05T09:09:10.039Z,100.00
2019-02-05T09:11:39.540Z,100.00
2019-02-05T09:14:10.721Z,100.00
2019-02-05T09:16:40.014Z,100.00
2019-02-05T09:19:10.070Z,100.00
2019-02-05T09:21:39.329Z,100.00
2019-02-05T09:24:08.717Z,100.00
2019-02-05T09:26:38.110Z,100.00
2019-02-05T09:29:07.484Z,100.00
2019-02-05T09:31:36.825Z,100.00
2019-02-05T09:34:06.276Z,100.00
2019-02-05T09:36:35.736Z,100.00
2019-02-05T09:39:07.266Z,100.00
2019-02-05T09:41:36.737Z,100.00
2019-02-05T09:44:06.139Z,100.00
2019-02-05T09:46:35.516Z,100.00
2019-02-05T09:49:05.359Z,100.00
2019-02-05T09:51:34.828Z,100.00
2019-02-05T09:54:04.289Z,100.00
2019-02-05T09:56:33.774Z,100.00
2019-02-05T09:59:03.202Z,100.00
2019-02-05T10:01:32.468Z,100.00
2019-02-05T10:04:01.734Z,100.00
2019-02-05T10:06:31.316Z,100.00
2019-02-05T10:09:00.695Z,100.00
2019-02-05T10:11:30.044Z,100.00
2019-02-05T10:13:59.391Z,100.00
2019-02-05T10:16:28.850Z,100.00
2019-02-05T10:18:58.898Z,100.00
2019-02-05T10:21:28.515Z,100.00
2019-02-05T10:23:57.775Z,100.00
2019-02-05T10:26:27.048Z,100.00
2019-02-05T10:28:56.346Z,100.00
2019-02-05T10:31:25.609Z,100.00
2019-02-05T10:33:55.566Z,100.00
2019-02-05T10:36:24.972Z,99.91
2019-02-05T10:38:54.361Z,100.00
2019-02-05T10:41:23.693Z,100.00
2019-02-05T10:43:53.038Z,100.00
2019-02-05T10:46:22.372Z,99.77
2019-02-05T10:48:51.750Z,99.78
2019-02-05T10:51:21.181Z,98.87
2019-02-05T10:53:50.833Z,98.64
2019-02-05T10:56:20.249Z,99.12
2019-02-05T10:58:49.712Z,98.54
2019-02-05T11:01:19.074Z,96.11
2019-02-05T11:03:48.406Z,96.61
2019-02-05T11:06:19.981Z,97.41
2019-02-05T11:08:48.769Z,97.23
2019-02-05T11:11:18.111Z,97.51
2019-02-05T11:13:47.406Z,97.53
2019-02-05T11:16:16.730Z,97.48
2019-02-05T11:18:46.050Z,96.11
2019-02-05T11:21:15.312Z,96.09
2019-02-05T11:23:44.545Z,96.22
2019-02-05T11:26:14.311Z,96.91
2019-02-05T11:28:44.507Z,95.27
2019-02-05T11:31:13.839Z,95.09
2019-02-05T11:33:43.200Z,95.75
2019-02-05T11:36:12.616Z,94.37
2019-02-05T11:38:42.007Z,94.11
2019-02-05T11:41:13.669Z,94.75
2019-02-05T11:43:42.427Z,93.97
2019-02-05T11:46:11.908Z,92.70
2019-02-05T11:48:41.334Z,93.90
2019-02-05T11:51:10.687Z,94.75
2019-02-05T11:53:39.957Z,93.85
2019-02-05T11:56:09.196Z,93.97
2019-02-05T11:58:38.914Z,93.90
2019-02-05T12:01:21.327Z,93.67
2019-02-05T12:03:50.777Z,93.85
2019-02-05T12:06:19.969Z,93.53
2019-02-05T12:08:49.411Z,93.58
2019-02-05T12:11:18.721Z,93.87
2019-02-05T12:13:48.276Z,92.96
2019-02-05T12:16:17.703Z,94.16
2019-02-05T12:18:49.889Z,94.00
2019-02-05T12:21:19.230Z,92.58
2019-02-05T12:23:48.896Z,92.84
2019-02-05T12:26:18.186Z,93.25
2019-02-05T12:28:47.537Z,93.01
2019-02-05T12:31:17.833Z,93.19
2019-02-05T12:33:47.185Z,92.98
2019-02-05T12:36:16.529Z,92.59
2019-02-05T12:38:45.781Z,93.05
2019-02-05T12:41:15.120Z,93.00
2019-02-05T12:43:44.467Z,91.51
2019-02-05T12:46:13.871Z,90.26
2019-02-05T12:48:43.070Z,91.17
2019-02-05T12:51:12.440Z,91.39
2019-02-05T12:53:41.808Z,89.36
2019-02-05T12:56:11.117Z,89.87
2019-02-05T12:58:40.441Z,90.65
2019-02-05T13:01:09.930Z,90.14
2019-02-05T13:03:39.187Z,90.77
2019-02-05T13:06:08.555Z,89.32
2019-02-05T13:08:37.818Z,90.23
2019-02-05T13:11:07.259Z,89.59
2019-02-05T13:13:36.556Z,90.36
2019-02-05T13:16:06.183Z,90.70
2019-02-05T13:18:35.581Z,89.67
2019-02-05T13:21:04.941Z,89.94
2019-02-05T13:23:34.356Z,89.95
2019-02-05T13:26:03.629Z,89.41
2019-02-05T13:28:35.902Z,90.16
2019-02-05T13:31:08.104Z,90.76
2019-02-05T13:33:36.820Z,90.99
2019-02-05T13:36:10.248Z,91.06
2019-02-05T13:38:39.472Z,90.51
2019-02-05T13:41:08.788Z,91.05
2019-02-05T13:43:40.107Z,91.00
2019-02-05T13:46:09.510Z,90.46
2019-02-05T13:48:39.009Z,90.64
2019-02-05T13:51:27.354Z,90.52
2019-02-05T13:53:56.903Z,90.98
2019-02-05T13:56:26.254Z,90.99
2019-02-05T13:58:56.027Z,90.65
2019-02-05T14:01:25.509Z,91.04
2019-02-05T14:04:13.898Z,89.59
2019-02-05T14:06:43.355Z,90.17
2019-02-05T14:09:13.781Z,90.35
2019-02-05T14:11:43.504Z,89.96
2019-02-05T14:14:12.830Z,89.72
2019-02-05T14:17:01.320Z,90.05
2019-02-05T14:19:30.923Z,90.28
2019-02-05T14:22:00.518Z,90.55
2019-02-05T14:24:30.036Z,90.94
2019-02-05T14:26:59.405Z,90.49
2019-02-05T14:29:28.888Z,90.69
2019-02-05T14:31:58.583Z,90.64
2019-02-05T14:34:46.987Z,90.30
2019-02-05T14:37:16.529Z,90.69
2019-02-05T14:39:48.872Z,90.92
2019-02-05T14:42:17.175Z,90.75
2019-02-05T14:44:46.620Z,91.16
2019-02-05T14:47:16.059Z,91.47
2019-02-05T14:50:05.434Z,91.50
2019-02-05T14:53:10.219Z,91.82
2019-02-05T14:55:43.080Z,91.54
2019-02-05T14:58:15.512Z,91.56
2019-02-05T15:00:45.445Z,92.08
2019-02-05T15:03:15.792Z,91.85
2019-02-05T15:06:04.374Z,91.87
2019-02-05T15:08:34.058Z,91.89
2019-02-05T15:11:03.603Z,92.03
2019-02-05T15:13:33.319Z,91.34
2019-02-05T15:16:21.924Z,91.83
2019-02-05T15:19:10.423Z,91.37
2019-02-05T15:21:40.112Z,91.36
2019-02-05T15:24:09.877Z,91.60
2019-02-05T15:26:39.561Z,91.69
2019-02-05T15:29:09.161Z,91.52
2019-02-05T15:31:39.039Z,91.75
2019-02-05T15:34:29.335Z,92.01
2019-02-05T15:36:59.198Z,92.17
2019-02-05T15:39:28.718Z,92.58
2019-02-05T15:41:58.598Z,92.99
2019-02-05T15:44:28.142Z,92.97
2019-02-05T15:46:57.786Z,93.25
2019-02-05T15:49:27.395Z,93.18
2019-02-05T15:51:57.173Z,92.91
2019-02-05T15:54:26.887Z,93.00
2019-02-05T15:56:56.500Z,93.24
2019-02-05T15:59:26.249Z,93.10
2019-02-05T16:02:05.918Z,93.13
2019-02-05T16:04:27.454Z,93.16
2019-02-05T16:06:57.185Z,93.18
2019-02-05T16:09:26.749Z,93.26
2019-02-05T16:11:56.416Z,93.05
2019-02-05T16:14:25.957Z,93.44
2019-02-05T16:16:55.625Z,93.32
2019-02-05T16:19:25.290Z,93.80
2019-02-05T16:21:54.991Z,93.49
2019-02-05T16:24:24.655Z,93.59
2019-02-05T16:26:54.303Z,93.58
2019-02-05T16:29:23.997Z,93.62
2019-02-05T16:31:53.498Z,93.81
2019-02-05T16:34:23.063Z,93.84
2019-02-05T16:36:52.730Z,93.76
2019-02-05T16:39:22.403Z,94.08
2019-02-05T16:41:51.956Z,93.97
2019-02-05T16:44:21.572Z,93.92
2019-02-05T16:46:51.242Z,94.03
2019-02-05T16:49:22.404Z,94.11
2019-02-05T16:51:52.388Z,94.07
2019-02-05T16:54:22.467Z,94.10
2019-02-05T16:56:54.649Z,94.35
2019-02-05T16:59:24.283Z,94.28
2019-02-05T17:01:57.412Z,94.45
2019-02-05T17:04:27.248Z,94.44
2019-02-05T17:06:56.945Z,94.19
2019-02-05T17:09:26.726Z,94.41
2019-02-05T17:11:56.963Z,94.50
2019-02-05T17:14:26.758Z,94.71
2019-02-05T17:16:56.434Z,94.72
2019-02-05T17:19:26.037Z,94.60
2019-02-05T17:21:55.931Z,94.53
2019-02-05T17:24:25.674Z,94.63
2019-02-05T17:26:55.394Z,94.59
2019-02-05T17:29:24.935Z,94.58
2019-02-05T17:31:54.503Z,94.56
2019-02-05T17:34:24.154Z,94.50
2019-02-05T17:36:54.632Z,94.53
2019-02-05T17:39:24.227Z,94.50
2019-02-05T17:41:53.950Z,94.53
2019-02-05T17:44:23.628Z,94.53
2019-02-05T17:46:53.590Z,94.55
2019-02-05T17:49:23.372Z,94.54
2019-02-05T17:51:53.489Z,94.59
2019-02-05T17:54:23.073Z,94.53
2019-02-05T17:56:52.686Z,94.51
2019-02-05T17:59:22.519Z,94.38
2019-02-05T18:01:52.268Z,94.55
2019-02-05T18:04:22.103Z,94.55
2019-02-05T18:06:51.755Z,94.62
2019-02-05T18:09:21.511Z,94.58
2019-02-05T18:11:51.112Z,94.78
2019-02-05T18:14:20.825Z,94.73
2019-02-05T18:16:50.850Z,94.62
2019-02-05T18:19:20.563Z,94.67
2019-02-05T18:21:50.129Z,94.77
2019-02-05T18:24:19.930Z,94.75
2019-02-05T18:26:49.583Z,94.87
2019-02-05T18:29:19.217Z,94.77
2019-02-05T18:31:48.982Z,94.91
2019-02-05T18:34:18.637Z,94.94
2019-02-05T18:36:48.348Z,94.87
2019-02-05T18:39:18.132Z,94.92
2019-02-05T18:41:47.773Z,94.99
2019-02-05T18:44:17.351Z,94.99
2019-02-05T18:46:46.950Z,95.01
2019-02-05T18:49:17.161Z,95.09
2019-02-05T18:51:47.096Z,95.07
2019-02-05T18:54:16.729Z,95.10
2019-02-05T18:56:46.460Z,95.14
2019-02-05T18:59:16.103Z,95.08
2019-02-05T19:01:45.873Z,95.08
2019-02-05T19:04:16.064Z,95.12
2019-02-05T19:06:45.742Z,95.09
2019-02-05T19:09:15.642Z,95.17
2019-02-05T19:11:45.500Z,95.21
2019-02-05T19:14:15.229Z,95.20
2019-02-05T19:16:44.936Z,95.20
2019-02-05T19:19:15.518Z,95.35
2019-02-05T19:21:45.317Z,95.25
2019-02-05T19:24:31.108Z,95.28
2019-02-05T19:27:00.980Z,95.35
2019-02-05T19:29:31.029Z,95.49
2019-02-05T19:32:00.807Z,95.37
2019-02-05T19:34:30.392Z,95.41
2019-02-05T19:37:00.144Z,95.46
2019-02-05T19:39:29.775Z,95.49
2019-02-05T19:41:59.647Z,95.56
2019-02-05T19:44:29.627Z,95.54
2019-02-05T19:47:02.879Z,95.49
2019-02-05T19:49:44.283Z,95.70
2019-02-05T19:52:14.056Z,95.58
2019-02-05T19:54:43.811Z,95.57
2019-02-05T19:57:13.793Z,95.77
2019-02-05T19:59:43.810Z,95.80
2019-02-05T20:02:13.617Z,95.84
2019-02-05T20:04:43.503Z,95.87
2019-02-05T20:07:14.260Z,95.87
2019-02-05T20:09:43.968Z,95.81
2019-02-05T20:12:15.003Z,95.88
2019-02-05T20:14:45.057Z,95.93
2019-02-05T20:17:14.857Z,95.67
2019-02-05T20:19:44.539Z,96.17
2019-02-05T20:22:14.389Z,95.95
2019-02-05T20:24:45.071Z,95.87
2019-02-05T20:27:14.872Z,95.77
2019-02-05T20:29:46.247Z,96.06
2019-02-05T20:32:16.420Z,95.97
2019-02-05T20:34:46.088Z,96.04
2019-02-05T20:37:15.805Z,95.98
2019-02-05T20:39:45.471Z,95.87
2019-02-05T20:42:15.223Z,95.79
2019-02-05T20:44:45.222Z,95.81
2019-02-05T20:47:15.129Z,95.80
2019-02-05T20:49:44.768Z,95.84
2019-02-05T20:52:14.575Z,96.00
2019-02-05T20:54:44.571Z,95.93
2019-02-05T20:57:14.327Z,95.77
2019-02-05T20:59:43.887Z,95.29
2019-02-05T21:02:13.941Z,95.48
2019-02-05T21:04:48.556Z,95.35
2019-02-05T21:07:15.068Z,95.35
2019-02-05T21:09:44.907Z,95.15
2019-02-05T21:12:14.799Z,95.01
2019-02-05T21:14:44.514Z,95.13
2019-02-05T21:17:14.492Z,95.19
2019-02-05T21:19:44.172Z,95.29
2019-02-05T21:22:13.893Z,95.13
2019-02-05T21:24:43.722Z,95.03
2019-02-05T21:27:13.565Z,95.02
2019-02-05T21:29:43.233Z,95.08
2019-02-05T21:32:13.191Z,95.08
2019-02-05T21:34:42.825Z,94.79
2019-02-05T21:37:12.466Z,94.85
2019-02-05T21:39:42.185Z,94.74
2019-02-05T21:42:11.788Z,94.81
2019-02-05T21:44:42.228Z,95.02
2019-02-05T21:47:12.243Z,95.07
2019-02-05T21:49:41.870Z,94.94
2019-02-05T21:52:11.408Z,94.81
2019-02-05T21:54:41.016Z,94.78
2019-02-05T21:57:10.760Z,94.79
2019-02-05T21:59:40.293Z,94.87
2019-02-05T22:02:11.002Z,94.95
2019-02-05T22:04:40.612Z,94.94
2019-02-05T22:07:10.250Z,94.86
2019-02-05T22:09:39.978Z,94.96
2019-02-05T22:12:09.487Z,94.98
2019-02-05T22:14:38.830Z,94.94
2019-02-05T22:17:08.121Z,94.87
2019-02-05T22:19:37.389Z,94.81
2019-02-05T22:22:06.671Z,94.79
2019-02-05T22:24:36.003Z,94.71
2019-02-05T22:27:05.691Z,94.66
2019-02-05T22:29:35.287Z,94.64
2019-02-05T22:32:04.624Z,94.32
2019-02-05T22:34:39.264Z,93.91
2019-02-05T22:37:05.119Z,94.25
2019-02-05T22:39:34.890Z,94.63
2019-02-05T22:42:04.514Z,94.80
2019-02-05T22:44:33.786Z,94.88
2019-02-05T22:47:03.028Z,94.79
2019-02-05T22:49:32.258Z,94.68
2019-02-05T22:52:01.547Z,94.54
2019-02-05T22:54:30.933Z,94.34
2019-02-05T22:57:00.118Z,94.48
2019-02-05T22:59:29.666Z,94.51
2019-02-05T23:02:02.818Z,94.61
2019-02-05T23:05:13.127Z,94.62
2019-02-05T23:07:42.474Z,94.88
2019-02-05T23:10:32.826Z,95.01
2019-02-05T23:13:05.549Z,95.07
2019-02-05T23:15:35.074Z,95.10
2019-02-05T23:18:05.224Z,95.07
2019-02-05T23:20:34.530Z,95.17
2019-02-05T23:23:03.978Z,95.23
2019-02-05T23:25:33.191Z,95.29
2019-02-05T23:28:02.671Z,95.40
2019-02-05T23:30:32.110Z,95.49
2019-02-05T23:33:01.590Z,95.51
2019-02-05T23:35:32.752Z,95.62
2019-02-05T23:38:02.257Z,95.64
2019-02-05T23:40:31.956Z,95.62
2019-02-05T23:43:01.242Z,95.62
2019-02-05T23:45:30.657Z,95.56
2019-02-05T23:47:59.902Z,95.53
2019-02-05T23:50:29.230Z,95.59
2019-02-05T23:52:58.666Z,95.63
2019-02-05T23:55:28.092Z,95.74
2019-02-05T23:57:57.349Z,95.78
